Weather at Columbus Metropolitan Airport

Public forecast

Using degrees Fahrenheit for public forecast. Weather courtesy of forecast.io.

Current aviation weather report (METAR) for Columbus Metropolitan Airport

Retrieved 2021/12/03 03:51 UTC (14 minutes ago):

KCSG 030351Z AUTO 00000KT 10SM CLR 11/09 A3012 RMK AO2 SLP196 T01110094

Aviation forecast (TAF) for Columbus Metropolitan Airport

Retrieved 2021-12-03 04:42 UTC (0 seconds ago):

TAF COR KCSG 030339Z 0304/0324 00000KT P6SM SKC FM030600 00000KT 6SM BR SCT250 FM030900 00000KT 4SM BR SCT250 TEMPO 0310/0313 1SM BR SCT002 FM031500 VRB03KT 5SM BR FEW015 FM031700 26004KT P6SM FEW035 FM031900 26004KT P6SM SKC